Terminal Aerodrome Forecast
Issued by NWS

Home | Current Version | Previous Version | Text Only | Print | Product List | Glossary On
Versions: 1 2 3 4 5 6 7 8 9 10 11 12 13 14 15 16 17 18 19
186
FTUS43 KLSX 071132
TAFCPS
TAF
KCPS 071132Z 0712/0812 22010KT P6SM BKN200
     FM072000 27014KT P6SM BKN120
     FM080600 29015KT P6SM SCT050 OVC100
     FM081100 29015G25KT P6SM -SN SCT025 OVC040=

USA.gov is the U.S. government's official web portal to all federal, state and local government web resources and services.